sensor_id;sensor_type;location;lat;lon;timestamp;temperature;humidity
59855;DHT22;45732;52.850;6.896;2022-08-06T00:02:28;14.30;99.90
59855;DHT22;45732;52.850;6.896;2022-08-06T00:04:56;14.30;99.90
59855;DHT22;45732;52.850;6.896;2022-08-06T00:07:21;14.20;99.90
59855;DHT22;45732;52.850;6.896;2022-08-06T00:09:47;14.20;99.90
59855;DHT22;45732;52.850;6.896;2022-08-06T00:12:13;14.20;99.90
59855;DHT22;45732;52.850;6.896;2022-08-06T00:14:38;14.00;99.90
59855;DHT22;45732;52.850;6.896;2022-08-06T00:17:04;14.00;99.90
59855;DHT22;45732;52.850;6.896;2022-08-06T00:19:30;13.90;99.90
59855;DHT22;45732;52.850;6.896;2022-08-06T00:21:56;13.80;99.90
59855;DHT22;45732;52.850;6.896;2022-08-06T00:24:22;13.90;99.90
59855;DHT22;45732;52.850;6.896;2022-08-06T00:26:48;13.90;99.90
59855;DHT22;45732;52.850;6.896;2022-08-06T00:29:14;13.90;99.90
59855;DHT22;45732;52.850;6.896;2022-08-06T00:31:40;13.90;99.90
59855;DHT22;45732;52.850;6.896;2022-08-06T00:34:06;14.00;99.90
59855;DHT22;45732;52.850;6.896;2022-08-06T00:36:34;14.00;99.90
59855;DHT22;45732;52.850;6.896;2022-08-06T00:39:02;13.90;99.90
59855;DHT22;45732;52.850;6.896;2022-08-06T00:41:29;13.80;99.90
59855;DHT22;45732;52.850;6.896;2022-08-06T00:43:56;13.70;99.90
59855;DHT22;45732;52.850;6.896;2022-08-06T00:46:25;13.60;99.90
59855;DHT22;45732;52.850;6.896;2022-08-06T00:48:51;13.50;99.90
59855;DHT22;45732;52.850;6.896;2022-08-06T00:51:17;13.50;99.90
59855;DHT22;45732;52.850;6.896;2022-08-06T00:53:43;13.30;99.90
59855;DHT22;45732;52.850;6.896;2022-08-06T00:56:09;13.30;99.90
59855;DHT22;45732;52.850;6.896;2022-08-06T00:58:35;13.20;99.90
59855;DHT22;45732;52.850;6.896;2022-08-06T01:01:01;13.20;99.90
59855;DHT22;45732;52.850;6.896;2022-08-06T01:03:27;13.00;99.90
59855;DHT22;45732;52.850;6.896;2022-08-06T01:05:53;13.00;99.90
59855;DHT22;45732;52.850;6.896;2022-08-06T01:08:19;12.90;99.90
59855;DHT22;45732;52.850;6.896;2022-08-06T01:10:45;12.80;99.90
59855;DHT22;45732;52.850;6.896;2022-08-06T01:13:11;12.80;99.90
59855;DHT22;45732;52.850;6.896;2022-08-06T01:15:37;12.80;99.90
59855;DHT22;45732;52.850;6.896;2022-08-06T01:18:13;12.80;99.90
59855;DHT22;45732;52.850;6.896;2022-08-06T01:26:51;12.80;99.90
59855;DHT22;45732;52.850;6.896;2022-08-06T01:29:28;12.80;99.90
59855;DHT22;45732;52.850;6.896;2022-08-06T01:32:15;12.70;99.90
59855;DHT22;45732;52.850;6.896;2022-08-06T01:34:54;12.60;99.90
59855;DHT22;45732;52.850;6.896;2022-08-06T01:37:27;12.60;99.90
59855;DHT22;45732;52.850;6.896;2022-08-06T01:39:58;12.70;99.90
59855;DHT22;45732;52.850;6.896;2022-08-06T01:42:27;12.80;99.90
59855;DHT22;45732;52.850;6.896;2022-08-06T01:44:56;12.90;99.90
59855;DHT22;45732;52.850;6.896;2022-08-06T01:47:27;12.90;99.90
59855;DHT22;45732;52.850;6.896;2022-08-06T01:49:56;12.90;99.90
59855;DHT22;45732;52.850;6.896;2022-08-06T01:52:23;12.90;99.90
59855;DHT22;45732;52.850;6.896;2022-08-06T01:54:50;12.90;99.90
59855;DHT22;45732;52.850;6.896;2022-08-06T01:57:19;12.80;99.90
59855;DHT22;45732;52.850;6.896;2022-08-06T01:59:50;12.80;99.90
59855;DHT22;45732;52.850;6.896;2022-08-06T02:02:21;12.90;99.90
59855;DHT22;45732;52.850;6.896;2022-08-06T02:04:51;13.00;99.90
59855;DHT22;45732;52.850;6.896;2022-08-06T02:07:23;12.90;99.90
59855;DHT22;45732;52.850;6.896;2022-08-06T02:09:50;12.90;99.90
59855;DHT22;45732;52.850;6.896;2022-08-06T02:12:23;12.90;99.90
59855;DHT22;45732;52.850;6.896;2022-08-06T02:17:32;12.70;99.90
59855;DHT22;45732;52.850;6.896;2022-08-06T02:19:59;12.50;99.90
59855;DHT22;45732;52.850;6.896;2022-08-06T02:22:32;12.50;99.90
59855;DHT22;45732;52.850;6.896;2022-08-06T02:25:04;12.50;99.90
59855;DHT22;45732;52.850;6.896;2022-08-06T02:27:33;12.40;99.90
59855;DHT22;45732;52.850;6.896;2022-08-06T02:30:00;12.30;99.90
59855;DHT22;45732;52.850;6.896;2022-08-06T02:32:27;12.30;99.90
59855;DHT22;45732;52.850;6.896;2022-08-06T02:34:53;12.30;99.90
59855;DHT22;45732;52.850;6.896;2022-08-06T02:37:23;12.20;99.90
59855;DHT22;45732;52.850;6.896;2022-08-06T02:39:52;12.20;99.90
59855;DHT22;45732;52.850;6.896;2022-08-06T02:42:32;12.10;99.90
59855;DHT22;45732;52.850;6.896;2022-08-06T02:50:19;12.30;99.90
59855;DHT22;45732;52.850;6.896;2022-08-06T02:52:58;12.30;99.90
59855;DHT22;45732;52.850;6.896;2022-08-06T02:55:34;12.40;99.90
59855;DHT22;45732;52.850;6.896;2022-08-06T02:58:23;12.40;99.90
59855;DHT22;45732;52.850;6.896;2022-08-06T03:00:52;12.40;99.90
59855;DHT22;45732;52.850;6.896;2022-08-06T03:03:20;12.40;99.90
59855;DHT22;45732;52.850;6.896;2022-08-06T03:05:48;12.30;99.90
59855;DHT22;45732;52.850;6.896;2022-08-06T03:08:18;12.30;99.90
59855;DHT22;45732;52.850;6.896;2022-08-06T03:10:47;12.30;99.90
59855;DHT22;45732;52.850;6.896;2022-08-06T03:13:13;12.30;99.90
59855;DHT22;45732;52.850;6.896;2022-08-06T03:15:39;12.30;99.90
59855;DHT22;45732;52.850;6.896;2022-08-06T03:18:06;12.10;99.90
59855;DHT22;45732;52.850;6.896;2022-08-06T03:20:34;12.00;99.90
59855;DHT22;45732;52.850;6.896;2022-08-06T03:23:03;12.00;99.90
59855;DHT22;45732;52.850;6.896;2022-08-06T03:25:31;11.90;99.90
59855;DHT22;45732;52.850;6.896;2022-08-06T03:27:59;11.90;99.90
59855;DHT22;45732;52.850;6.896;2022-08-06T03:30:26;11.80;99.90
59855;DHT22;45732;52.850;6.896;2022-08-06T03:32:53;11.70;99.90
59855;DHT22;45732;52.850;6.896;2022-08-06T03:35:20;11.60;99.90
59855;DHT22;45732;52.850;6.896;2022-08-06T03:40:14;11.60;99.90
59855;DHT22;45732;52.850;6.896;2022-08-06T03:42:40;11.50;99.90
59855;DHT22;45732;52.850;6.896;2022-08-06T03:45:06;11.40;99.90
59855;DHT22;45732;52.850;6.896;2022-08-06T03:47:40;11.40;99.90
59855;DHT22;45732;52.850;6.896;2022-08-06T03:50:18;11.30;99.90
59855;DHT22;45732;52.850;6.896;2022-08-06T03:53:06;11.30;99.90
59855;DHT22;45732;52.850;6.896;2022-08-06T03:55:35;11.40;99.90
59855;DHT22;45732;52.850;6.896;2022-08-06T03:58:05;11.50;99.90
59855;DHT22;45732;52.850;6.896;2022-08-06T04:00:36;11.40;99.90
59855;DHT22;45732;52.850;6.896;2022-08-06T04:03:05;11.40;99.90
59855;DHT22;45732;52.850;6.896;2022-08-06T04:05:33;11.40;99.90
59855;DHT22;45732;52.850;6.896;2022-08-06T04:08:04;11.40;99.90
59855;DHT22;45732;52.850;6.896;2022-08-06T04:10:40;11.40;99.90
59855;DHT22;45732;52.850;6.896;2022-08-06T04:13:12;11.50;99.90
59855;DHT22;45732;52.850;6.896;2022-08-06T04:15:38;11.50;99.90
59855;DHT22;45732;52.850;6.896;2022-08-06T04:18:11;11.40;99.90
59855;DHT22;45732;52.850;6.896;2022-08-06T04:20:39;11.40;99.90
59855;DHT22;45732;52.850;6.896;2022-08-06T04:23:05;11.50;99.90
59855;DHT22;45732;52.850;6.896;2022-08-06T04:25:34;11.50;99.90
59855;DHT22;45732;52.850;6.896;2022-08-06T04:28:02;11.50;99.90
59855;DHT22;45732;52.850;6.896;2022-08-06T04:30:29;11.50;99.90
59855;DHT22;45732;52.850;6.896;2022-08-06T04:32:56;11.60;99.90
59855;DHT22;45732;52.850;6.896;2022-08-06T04:35:23;11.60;99.90
59855;DHT22;45732;52.850;6.896;2022-08-06T04:37:49;11.70;99.90
59855;DHT22;45732;52.850;6.896;2022-08-06T04:40:16;11.70;99.90
59855;DHT22;45732;52.850;6.896;2022-08-06T04:42:42;11.70;99.90
59855;DHT22;45732;52.850;6.896;2022-08-06T04:45:08;11.80;99.90
59855;DHT22;45732;52.850;6.896;2022-08-06T04:47:35;11.90;99.90
59855;DHT22;45732;52.850;6.896;2022-08-06T04:50:02;12.00;99.90
59855;DHT22;45732;52.850;6.896;2022-08-06T04:52:28;12.00;99.90
59855;DHT22;45732;52.850;6.896;2022-08-06T04:54:54;12.10;99.90
59855;DHT22;45732;52.850;6.896;2022-08-06T04:57:19;12.10;99.90
59855;DHT22;45732;52.850;6.896;2022-08-06T04:59:45;12.10;99.90
59855;DHT22;45732;52.850;6.896;2022-08-06T05:02:11;12.20;99.90
59855;DHT22;45732;52.850;6.896;2022-08-06T05:04:38;12.20;99.90
59855;DHT22;45732;52.850;6.896;2022-08-06T05:07:18;12.20;99.90
59855;DHT22;45732;52.850;6.896;2022-08-06T05:09:44;12.30;99.90
59855;DHT22;45732;52.850;6.896;2022-08-06T05:15:17;12.50;99.90
59855;DHT22;45732;52.850;6.896;2022-08-06T05:20:35;12.50;99.90
59855;DHT22;45732;52.850;6.896;2022-08-06T05:23:07;12.50;99.90
59855;DHT22;45732;52.850;6.896;2022-08-06T05:25:37;12.60;99.90
59855;DHT22;45732;52.850;6.896;2022-08-06T05:28:05;12.70;99.90
59855;DHT22;45732;52.850;6.896;2022-08-06T05:30:31;12.70;99.90
59855;DHT22;45732;52.850;6.896;2022-08-06T05:32:57;12.70;99.90
59855;DHT22;45732;52.850;6.896;2022-08-06T05:35:24;12.70;99.90
59855;DHT22;45732;52.850;6.896;2022-08-06T05:37:50;12.80;99.90
59855;DHT22;45732;52.850;6.896;2022-08-06T05:40:16;12.80;99.90
59855;DHT22;45732;52.850;6.896;2022-08-06T05:42:41;12.90;99.90
59855;DHT22;45732;52.850;6.896;2022-08-06T05:45:10;13.00;99.90
59855;DHT22;45732;52.850;6.896;2022-08-06T05:47:37;13.10;99.90
59855;DHT22;45732;52.850;6.896;2022-08-06T05:50:10;13.20;99.90
59855;DHT22;45732;52.850;6.896;2022-08-06T05:52:58;13.10;99.90
59855;DHT22;45732;52.850;6.896;2022-08-06T05:55:31;13.20;99.90
59855;DHT22;45732;52.850;6.896;2022-08-06T05:58:02;13.30;99.90
59855;DHT22;45732;52.850;6.896;2022-08-06T06:00:32;13.30;99.90
59855;DHT22;45732;52.850;6.896;2022-08-06T06:03:00;13.50;99.90
59855;DHT22;45732;52.850;6.896;2022-08-06T06:05:26;13.50;99.90
59855;DHT22;45732;52.850;6.896;2022-08-06T06:07:53;13.60;99.90
59855;DHT22;45732;52.850;6.896;2022-08-06T06:10:22;13.60;99.90
59855;DHT22;45732;52.850;6.896;2022-08-06T06:12:49;13.70;99.90
59855;DHT22;45732;52.850;6.896;2022-08-06T06:15:16;13.80;99.90
59855;DHT22;45732;52.850;6.896;2022-08-06T06:20:13;13.90;99.90
59855;DHT22;45732;52.850;6.896;2022-08-06T06:25:35;14.10;99.90
59855;DHT22;45732;52.850;6.896;2022-08-06T06:33:44;14.40;99.90
59855;DHT22;45732;52.850;6.896;2022-08-06T06:36:33;14.60;99.90
59855;DHT22;45732;52.850;6.896;2022-08-06T06:39:03;14.60;99.90
59855;DHT22;45732;52.850;6.896;2022-08-06T06:41:47;14.70;99.90
59855;DHT22;45732;52.850;6.896;2022-08-06T06:44:28;14.80;99.90
59855;DHT22;45732;52.850;6.896;2022-08-06T06:47:03;14.90;99.90
59855;DHT22;45732;52.850;6.896;2022-08-06T06:49:36;15.00;99.90
59855;DHT22;45732;52.850;6.896;2022-08-06T06:54:47;15.20;99.90
59855;DHT22;45732;52.850;6.896;2022-08-06T06:57:32;15.20;99.90
59855;DHT22;45732;52.850;6.896;2022-08-06T07:00:02;15.30;99.90
59855;DHT22;45732;52.850;6.896;2022-08-06T07:02:31;15.40;99.90
59855;DHT22;45732;52.850;6.896;2022-08-06T07:04:59;15.50;99.90
59855;DHT22;45732;52.850;6.896;2022-08-06T07:07:30;15.50;99.90
59855;DHT22;45732;52.850;6.896;2022-08-06T07:09:57;15.60;99.90
59855;DHT22;45732;52.850;6.896;2022-08-06T07:12:25;15.70;99.90
59855;DHT22;45732;52.850;6.896;2022-08-06T07:14:54;15.80;99.90
59855;DHT22;45732;52.850;6.896;2022-08-06T07:17:22;15.90;99.90
59855;DHT22;45732;52.850;6.896;2022-08-06T07:19:51;15.90;99.90
59855;DHT22;45732;52.850;6.896;2022-08-06T07:22:23;16.00;99.90
59855;DHT22;45732;52.850;6.896;2022-08-06T07:24:56;16.00;99.90
59855;DHT22;45732;52.850;6.896;2022-08-06T07:27:32;16.10;99.90
59855;DHT22;45732;52.850;6.896;2022-08-06T07:30:00;16.10;99.90
59855;DHT22;45732;52.850;6.896;2022-08-06T07:32:28;16.20;99.90
59855;DHT22;45732;52.850;6.896;2022-08-06T07:34:55;16.20;99.90
59855;DHT22;45732;52.850;6.896;2022-08-06T07:37:21;16.30;99.90
59855;DHT22;45732;52.850;6.896;2022-08-06T07:39:50;16.30;99.90
59855;DHT22;45732;52.850;6.896;2022-08-06T07:42:18;16.40;99.90
59855;DHT22;45732;52.850;6.896;2022-08-06T07:44:48;16.40;99.90
59855;DHT22;45732;52.850;6.896;2022-08-06T07:47:19;16.50;99.90
59855;DHT22;45732;52.850;6.896;2022-08-06T07:49:55;16.50;99.90
59855;DHT22;45732;52.850;6.896;2022-08-06T07:52:22;16.60;99.90
59855;DHT22;45732;52.850;6.896;2022-08-06T07:54:48;16.60;99.90
59855;DHT22;45732;52.850;6.896;2022-08-06T07:57:15;16.70;99.90
59855;DHT22;45732;52.850;6.896;2022-08-06T07:59:42;16.80;99.90
59855;DHT22;45732;52.850;6.896;2022-08-06T08:02:09;16.90;99.90
59855;DHT22;45732;52.850;6.896;2022-08-06T08:04:36;16.90;99.90
59855;DHT22;45732;52.850;6.896;2022-08-06T08:07:21;17.00;99.90
59855;DHT22;45732;52.850;6.896;2022-08-06T08:09:48;17.10;99.90
59855;DHT22;45732;52.850;6.896;2022-08-06T08:12:17;17.10;99.90
59855;DHT22;45732;52.850;6.896;2022-08-06T08:14:44;17.20;99.90
59855;DHT22;45732;52.850;6.896;2022-08-06T08:17:11;17.30;99.90
59855;DHT22;45732;52.850;6.896;2022-08-06T08:19:36;17.40;99.90
59855;DHT22;45732;52.850;6.896;2022-08-06T08:22:11;17.50;99.90
59855;DHT22;45732;52.850;6.896;2022-08-06T08:24:39;17.50;99.90
59855;DHT22;45732;52.850;6.896;2022-08-06T08:27:06;17.40;99.90
59855;DHT22;45732;52.850;6.896;2022-08-06T08:29:35;17.30;99.90
59855;DHT22;45732;52.850;6.896;2022-08-06T08:32:01;17.30;99.90
59855;DHT22;45732;52.850;6.896;2022-08-06T08:34:28;17.40;99.90
59855;DHT22;45732;52.850;6.896;2022-08-06T08:36:54;17.40;99.90
59855;DHT22;45732;52.850;6.896;2022-08-06T08:39:20;17.60;99.90
59855;DHT22;45732;52.850;6.896;2022-08-06T08:41:52;17.80;99.90
59855;DHT22;45732;52.850;6.896;2022-08-06T08:44:25;17.90;99.90
59855;DHT22;45732;52.850;6.896;2022-08-06T08:46:57;18.00;99.90
59855;DHT22;45732;52.850;6.896;2022-08-06T08:49:39;18.10;99.90
59855;DHT22;45732;52.850;6.896;2022-08-06T08:52:13;18.10;99.90
59855;DHT22;45732;52.850;6.896;2022-08-06T08:54:44;18.10;99.90
59855;DHT22;45732;52.850;6.896;2022-08-06T08:57:10;18.10;99.90
59855;DHT22;45732;52.850;6.896;2022-08-06T08:59:36;18.30;99.90
59855;DHT22;45732;52.850;6.896;2022-08-06T09:02:04;18.40;99.90
59855;DHT22;45732;52.850;6.896;2022-08-06T09:04:32;18.40;99.90
59855;DHT22;45732;52.850;6.896;2022-08-06T09:06:58;18.30;99.90
59855;DHT22;45732;52.850;6.896;2022-08-06T09:09:24;18.30;99.90
59855;DHT22;45732;52.850;6.896;2022-08-06T09:11:52;18.50;99.90
59855;DHT22;45732;52.850;6.896;2022-08-06T09:14:19;18.50;99.90
59855;DHT22;45732;52.850;6.896;2022-08-06T09:16:45;18.50;99.90
59855;DHT22;45732;52.850;6.896;2022-08-06T09:19:12;18.50;99.90
59855;DHT22;45732;52.850;6.896;2022-08-06T09:21:38;18.40;99.90
59855;DHT22;45732;52.850;6.896;2022-08-06T09:24:04;18.50;99.90
59855;DHT22;45732;52.850;6.896;2022-08-06T09:26:30;18.60;99.90
59855;DHT22;45732;52.850;6.896;2022-08-06T09:29:00;18.60;99.90
59855;DHT22;45732;52.850;6.896;2022-08-06T09:31:26;18.70;99.90
59855;DHT22;45732;52.850;6.896;2022-08-06T09:33:58;18.80;99.90
59855;DHT22;45732;52.850;6.896;2022-08-06T09:36:24;19.00;99.90
59855;DHT22;45732;52.850;6.896;2022-08-06T09:38:51;19.20;99.90
59855;DHT22;45732;52.850;6.896;2022-08-06T09:41:19;19.30;99.90
59855;DHT22;45732;52.850;6.896;2022-08-06T09:43:46;19.40;99.90
59855;DHT22;45732;52.850;6.896;2022-08-06T09:46:12;19.40;99.90
59855;DHT22;45732;52.850;6.896;2022-08-06T09:48:55;19.50;99.90
59855;DHT22;45732;52.850;6.896;2022-08-06T09:51:22;19.50;99.90
59855;DHT22;45732;52.850;6.896;2022-08-06T09:53:57;19.10;99.90
59855;DHT22;45732;52.850;6.896;2022-08-06T09:56:27;19.10;99.90
59855;DHT22;45732;52.850;6.896;2022-08-06T09:59:00;19.00;99.90
59855;DHT22;45732;52.850;6.896;2022-08-06T10:01:27;18.90;99.90
59855;DHT22;45732;52.850;6.896;2022-08-06T10:03:55;18.80;99.90
59855;DHT22;45732;52.850;6.896;2022-08-06T10:06:21;18.80;99.90
59855;DHT22;45732;52.850;6.896;2022-08-06T10:08:48;18.80;99.90
59855;DHT22;45732;52.850;6.896;2022-08-06T10:11:14;18.80;99.90
59855;DHT22;45732;52.850;6.896;2022-08-06T10:13:46;19.00;99.90
59855;DHT22;45732;52.850;6.896;2022-08-06T10:16:21;19.20;99.70
59855;DHT22;45732;52.850;6.896;2022-08-06T10:18:53;19.40;99.10
59855;DHT22;45732;52.850;6.896;2022-08-06T10:21:21;19.70;99.50
59855;DHT22;45732;52.850;6.896;2022-08-06T10:23:51;19.80;98.90
59855;DHT22;45732;52.850;6.896;2022-08-06T10:26:21;19.80;99.00
59855;DHT22;45732;52.850;6.896;2022-08-06T10:28:49;19.80;99.30
59855;DHT22;45732;52.850;6.896;2022-08-06T10:31:17;19.40;99.90
59855;DHT22;45732;52.850;6.896;2022-08-06T10:34:09;19.40;99.90
59855;DHT22;45732;52.850;6.896;2022-08-06T10:36:55;19.30;99.90
59855;DHT22;45732;52.850;6.896;2022-08-06T10:39:26;19.20;99.90
59855;DHT22;45732;52.850;6.896;2022-08-06T10:41:54;19.00;99.90
59855;DHT22;45732;52.850;6.896;2022-08-06T10:44:22;19.00;99.90
59855;DHT22;45732;52.850;6.896;2022-08-06T10:46:51;19.10;99.90
59855;DHT22;45732;52.850;6.896;2022-08-06T10:49:19;19.30;99.90
59855;DHT22;45732;52.850;6.896;2022-08-06T10:51:49;19.60;99.90
59855;DHT22;45732;52.850;6.896;2022-08-06T10:54:18;19.90;99.90
59855;DHT22;45732;52.850;6.896;2022-08-06T10:56:48;20.20;99.50
59855;DHT22;45732;52.850;6.896;2022-08-06T10:59:14;20.30;99.90
59855;DHT22;45732;52.850;6.896;2022-08-06T11:04:58;20.20;99.90
59855;DHT22;45732;52.850;6.896;2022-08-06T11:15:46;20.10;99.90
59855;DHT22;45732;52.850;6.896;2022-08-06T11:18:12;20.00;99.90
59855;DHT22;45732;52.850;6.896;2022-08-06T11:20:40;19.90;99.90
59855;DHT22;45732;52.850;6.896;2022-08-06T11:25:47;20.10;99.90
59855;DHT22;45732;52.850;6.896;2022-08-06T11:28:15;20.20;99.90
59855;DHT22;45732;52.850;6.896;2022-08-06T11:33:09;20.60;99.90
59855;DHT22;45732;52.850;6.896;2022-08-06T11:38:12;20.80;99.90
59855;DHT22;45732;52.850;6.896;2022-08-06T11:40:59;21.10;99.30
59855;DHT22;45732;52.850;6.896;2022-08-06T11:49:10;21.10;98.00
59855;DHT22;45732;52.850;6.896;2022-08-06T11:51:43;20.90;96.60
59855;DHT22;45732;52.850;6.896;2022-08-06T11:54:18;20.80;96.70
59855;DHT22;45732;52.850;6.896;2022-08-06T12:00:08;20.50;97.00
59855;DHT22;45732;52.850;6.896;2022-08-06T12:07:38;20.30;97.00
59855;DHT22;45732;52.850;6.896;2022-08-06T12:10:11;20.40;97.30
59855;DHT22;45732;52.850;6.896;2022-08-06T12:12:46;20.40;97.10
59855;DHT22;45732;52.850;6.896;2022-08-06T12:17:39;20.40;96.40
59855;DHT22;45732;52.850;6.896;2022-08-06T12:20:06;20.50;95.40
59855;DHT22;45732;52.850;6.896;2022-08-06T12:22:34;20.60;94.60
59855;DHT22;45732;52.850;6.896;2022-08-06T12:25:04;20.60;92.60
59855;DHT22;45732;52.850;6.896;2022-08-06T12:27:35;20.80;92.60
59855;DHT22;45732;52.850;6.896;2022-08-06T12:30:04;21.10;92.60
59855;DHT22;45732;52.850;6.896;2022-08-06T12:32:35;21.30;92.30
59855;DHT22;45732;52.850;6.896;2022-08-06T12:35:09;21.50;92.00
59855;DHT22;45732;52.850;6.896;2022-08-06T12:40:13;21.60;91.30
59855;DHT22;45732;52.850;6.896;2022-08-06T12:45:28;21.70;90.50
59855;DHT22;45732;52.850;6.896;2022-08-06T12:48:04;21.70;90.00
59855;DHT22;45732;52.850;6.896;2022-08-06T12:50:31;21.70;87.80
59855;DHT22;45732;52.850;6.896;2022-08-06T12:53:07;21.60;86.50
59855;DHT22;45732;52.850;6.896;2022-08-06T12:55:35;21.70;87.20
59855;DHT22;45732;52.850;6.896;2022-08-06T12:58:02;21.60;87.70
59855;DHT22;45732;52.850;6.896;2022-08-06T13:00:29;21.60;88.20
59855;DHT22;45732;52.850;6.896;2022-08-06T13:02:55;21.70;88.70
59855;DHT22;45732;52.850;6.896;2022-08-06T13:05:23;21.80;88.90
59855;DHT22;45732;52.850;6.896;2022-08-06T13:07:55;21.70;89.10
59855;DHT22;45732;52.850;6.896;2022-08-06T13:10:21;21.70;89.00
59855;DHT22;45732;52.850;6.896;2022-08-06T13:13:01;21.70;90.00
59855;DHT22;45732;52.850;6.896;2022-08-06T13:15:28;21.70;89.70
59855;DHT22;45732;52.850;6.896;2022-08-06T13:18:16;21.60;90.30
59855;DHT22;45732;52.850;6.896;2022-08-06T13:20:45;21.60;90.60
59855;DHT22;45732;52.850;6.896;2022-08-06T13:23:14;21.50;90.70
59855;DHT22;45732;52.850;6.896;2022-08-06T13:28:17;21.40;91.50
59855;DHT22;45732;52.850;6.896;2022-08-06T13:30:44;21.30;92.30
59855;DHT22;45732;52.850;6.896;2022-08-06T13:33:18;21.30;92.20
59855;DHT22;45732;52.850;6.896;2022-08-06T13:35:45;21.30;92.40
59855;DHT22;45732;52.850;6.896;2022-08-06T13:38:25;21.20;92.10
59855;DHT22;45732;52.850;6.896;2022-08-06T13:40:50;21.20;92.30
59855;DHT22;45732;52.850;6.896;2022-08-06T13:43:16;21.20;92.50
59855;DHT22;45732;52.850;6.896;2022-08-06T13:45:42;21.10;92.00
59855;DHT22;45732;52.850;6.896;2022-08-06T13:48:10;21.10;92.30
59855;DHT22;45732;52.850;6.896;2022-08-06T13:50:39;21.20;92.00
59855;DHT22;45732;52.850;6.896;2022-08-06T13:53:09;21.10;91.50
59855;DHT22;45732;52.850;6.896;2022-08-06T13:55:36;21.10;91.50
59855;DHT22;45732;52.850;6.896;2022-08-06T13:58:03;21.20;91.50
59855;DHT22;45732;52.850;6.896;2022-08-06T14:00:29;21.10;91.40
59855;DHT22;45732;52.850;6.896;2022-08-06T14:02:57;21.00;91.20
59855;DHT22;45732;52.850;6.896;2022-08-06T14:05:23;20.90;91.10
59855;DHT22;45732;52.850;6.896;2022-08-06T14:07:51;20.90;91.00
59855;DHT22;45732;52.850;6.896;2022-08-06T14:10:17;20.80;90.40
59855;DHT22;45732;52.850;6.896;2022-08-06T14:12:43;20.80;90.20
59855;DHT22;45732;52.850;6.896;2022-08-06T14:15:30;20.90;89.60
59855;DHT22;45732;52.850;6.896;2022-08-06T14:17:56;20.80;89.40
59855;DHT22;45732;52.850;6.896;2022-08-06T14:20:22;20.90;88.90
59855;DHT22;45732;52.850;6.896;2022-08-06T14:22:47;20.90;88.50
59855;DHT22;45732;52.850;6.896;2022-08-06T14:25:13;21.00;87.30
59855;DHT22;45732;52.850;6.896;2022-08-06T14:27:39;20.90;87.60
59855;DHT22;45732;52.850;6.896;2022-08-06T14:30:05;21.00;87.70
59855;DHT22;45732;52.850;6.896;2022-08-06T14:32:31;21.00;87.30
59855;DHT22;45732;52.850;6.896;2022-08-06T14:34:56;20.90;87.60
59855;DHT22;45732;52.850;6.896;2022-08-06T14:37:22;21.00;87.90
59855;DHT22;45732;52.850;6.896;2022-08-06T14:39:48;21.00;88.20
59855;DHT22;45732;52.850;6.896;2022-08-06T14:42:14;21.00;88.70
59855;DHT22;45732;52.850;6.896;2022-08-06T14:44:58;20.90;88.70
59855;DHT22;45732;52.850;6.896;2022-08-06T14:47:25;20.90;89.90
59855;DHT22;45732;52.850;6.896;2022-08-06T14:49:51;20.90;89.60
59855;DHT22;45732;52.850;6.896;2022-08-06T14:52:17;21.00;89.50
59855;DHT22;45732;52.850;6.896;2022-08-06T14:54:43;21.00;90.20
59855;DHT22;45732;52.850;6.896;2022-08-06T14:57:10;21.00;90.50
59855;DHT22;45732;52.850;6.896;2022-08-06T14:59:36;21.10;90.20
59855;DHT22;45732;52.850;6.896;2022-08-06T15:02:03;21.10;89.50
59855;DHT22;45732;52.850;6.896;2022-08-06T15:04:29;21.30;90.10
59855;DHT22;45732;52.850;6.896;2022-08-06T15:06:55;21.40;90.10
59855;DHT22;45732;52.850;6.896;2022-08-06T15:09:21;21.50;89.10
59855;DHT22;45732;52.850;6.896;2022-08-06T15:11:47;21.50;88.10
59855;DHT22;45732;52.850;6.896;2022-08-06T15:14:14;21.60;87.80
59855;DHT22;45732;52.850;6.896;2022-08-06T15:16:39;21.70;87.70
59855;DHT22;45732;52.850;6.896;2022-08-06T15:19:05;21.70;87.10
59855;DHT22;45732;52.850;6.896;2022-08-06T15:21:31;21.80;88.50
59855;DHT22;45732;52.850;6.896;2022-08-06T15:23:57;21.90;88.80
59855;DHT22;45732;52.850;6.896;2022-08-06T15:26:24;21.90;88.30
59855;DHT22;45732;52.850;6.896;2022-08-06T15:28:51;22.10;89.80
59855;DHT22;45732;52.850;6.896;2022-08-06T15:31:17;22.20;89.60
59855;DHT22;45732;52.850;6.896;2022-08-06T15:33:44;22.20;88.50
59855;DHT22;45732;52.850;6.896;2022-08-06T15:36:10;22.30;89.40
59855;DHT22;45732;52.850;6.896;2022-08-06T15:38:36;22.30;89.50
59855;DHT22;45732;52.850;6.896;2022-08-06T15:41:03;22.30;88.60
59855;DHT22;45732;52.850;6.896;2022-08-06T15:43:29;22.30;87.10
59855;DHT22;45732;52.850;6.896;2022-08-06T15:45:56;22.20;85.90
59855;DHT22;45732;52.850;6.896;2022-08-06T15:48:27;22.30;87.30
59855;DHT22;45732;52.850;6.896;2022-08-06T15:50:54;22.30;88.70
59855;DHT22;45732;52.850;6.896;2022-08-06T15:53:20;22.30;87.10
59855;DHT22;45732;52.850;6.896;2022-08-06T15:55:46;22.30;86.30
59855;DHT22;45732;52.850;6.896;2022-08-06T15:58:12;22.30;86.40
59855;DHT22;45732;52.850;6.896;2022-08-06T16:00:39;22.40;87.10
59855;DHT22;45732;52.850;6.896;2022-08-06T16:03:08;22.40;87.10
59855;DHT22;45732;52.850;6.896;2022-08-06T16:05:37;22.50;86.60
59855;DHT22;45732;52.850;6.896;2022-08-06T16:08:05;22.40;84.60
59855;DHT22;45732;52.850;6.896;2022-08-06T16:10:32;22.40;83.60
59855;DHT22;45732;52.850;6.896;2022-08-06T16:12:58;22.40;83.40
59855;DHT22;45732;52.850;6.896;2022-08-06T16:15:23;22.40;82.50
59855;DHT22;45732;52.850;6.896;2022-08-06T16:17:49;22.50;83.40
59855;DHT22;45732;52.850;6.896;2022-08-06T16:20:17;22.50;84.70
59855;DHT22;45732;52.850;6.896;2022-08-06T16:22:43;22.60;84.50
59855;DHT22;45732;52.850;6.896;2022-08-06T16:25:09;22.70;84.30
59855;DHT22;45732;52.850;6.896;2022-08-06T16:27:34;22.70;84.50
59855;DHT22;45732;52.850;6.896;2022-08-06T16:30:00;22.70;84.50
59855;DHT22;45732;52.850;6.896;2022-08-06T16:32:26;22.70;84.80
59855;DHT22;45732;52.850;6.896;2022-08-06T16:34:52;22.90;85.30
59855;DHT22;45732;52.850;6.896;2022-08-06T16:37:23;22.90;84.60
59855;DHT22;45732;52.850;6.896;2022-08-06T16:39:49;23.00;84.40
59855;DHT22;45732;52.850;6.896;2022-08-06T16:42:15;23.00;83.70
59855;DHT22;45732;52.850;6.896;2022-08-06T16:44:41;23.20;84.20
59855;DHT22;45732;52.850;6.896;2022-08-06T16:47:07;23.50;83.90
59855;DHT22;45732;52.850;6.896;2022-08-06T16:49:33;24.00;82.60
59855;DHT22;45732;52.850;6.896;2022-08-06T16:51:59;24.20;81.30
59855;DHT22;45732;52.850;6.896;2022-08-06T16:54:24;24.20;81.70
59855;DHT22;45732;52.850;6.896;2022-08-06T16:56:50;24.00;82.50
59855;DHT22;45732;52.850;6.896;2022-08-06T16:59:16;23.70;82.10
59855;DHT22;45732;52.850;6.896;2022-08-06T17:01:42;23.30;83.20